sensor_id;sensor_type;location;lat;lon;timestamp;pressure;altitude;pressure_sealevel;temperature
29701;BMP280;57917;51.380;-0.176;2023-12-07T00:04:34;101175.88;;;6.71
29701;BMP280;57917;51.380;-0.176;2023-12-07T00:10:21;101173.09;;;6.78
29701;BMP280;57917;51.380;-0.176;2023-12-07T00:16:09;101147.59;;;6.78
29701;BMP280;57917;51.380;-0.176;2023-12-07T00:21:57;101141.59;;;6.66
29701;BMP280;57917;51.380;-0.176;2023-12-07T00:27:44;101119.63;;;6.72
29701;BMP280;57917;51.380;-0.176;2023-12-07T00:33:34;101103.44;;;6.80
29701;BMP280;57917;51.380;-0.176;2023-12-07T00:39:21;101124.66;;;6.90
29701;BMP280;57917;51.380;-0.176;2023-12-07T00:45:08;101133.97;;;7.09
29701;BMP280;57917;51.380;-0.176;2023-12-07T00:50:55;101131.81;;;7.06
29701;BMP280;57917;51.380;-0.176;2023-12-07T00:56:45;101107.31;;;7.06
29701;BMP280;57917;51.380;-0.176;2023-12-07T01:02:32;101093.59;;;7.04
29701;BMP280;57917;51.380;-0.176;2023-12-07T01:08:19;101096.97;;;6.99
29701;BMP280;57917;51.380;-0.176;2023-12-07T01:14:06;101112.19;;;6.97
29701;BMP280;57917;51.380;-0.176;2023-12-07T01:19:52;101097.53;;;7.01
29701;BMP280;57917;51.380;-0.176;2023-12-07T01:25:39;101094.88;;;7.01
29701;BMP280;57917;51.380;-0.176;2023-12-07T01:31:26;101085.88;;;6.97
29701;BMP280;57917;51.380;-0.176;2023-12-07T01:37:13;101080.84;;;6.96
29701;BMP280;57917;51.380;-0.176;2023-12-07T01:43:00;101094.16;;;6.89
29701;BMP280;57917;51.380;-0.176;2023-12-07T01:48:47;101082.09;;;6.93
29701;BMP280;57917;51.380;-0.176;2023-12-07T01:54:37;101080.38;;;6.99
29701;BMP280;57917;51.380;-0.176;2023-12-07T02:00:46;101081.16;;;6.99
29701;BMP280;57917;51.380;-0.176;2023-12-07T02:06:57;101068.09;;;7.04
29701;BMP280;57917;51.380;-0.176;2023-12-07T02:12:47;101069.22;;;7.08
29701;BMP280;57917;51.380;-0.176;2023-12-07T02:18:40;101075.09;;;7.15
29701;BMP280;57917;51.380;-0.176;2023-12-07T02:24:33;101081.03;;;7.22
29701;BMP280;57917;51.380;-0.176;2023-12-07T02:30:20;101079.25;;;7.28
29701;BMP280;57917;51.380;-0.176;2023-12-07T02:36:07;101062.34;;;7.24
29701;BMP280;57917;51.380;-0.176;2023-12-07T02:41:55;101044.72;;;7.24
29701;BMP280;57917;51.380;-0.176;2023-12-07T02:47:43;101029.53;;;7.15
29701;BMP280;57917;51.380;-0.176;2023-12-07T02:53:34;101032.50;;;7.18
29701;BMP280;57917;51.380;-0.176;2023-12-07T02:59:21;101041.91;;;7.14
29701;BMP280;57917;51.380;-0.176;2023-12-07T03:05:08;101043.63;;;7.25
29701;BMP280;57917;51.380;-0.176;2023-12-07T03:10:55;101032.41;;;7.30
29701;BMP280;57917;51.380;-0.176;2023-12-07T03:16:42;101017.59;;;7.24
29701;BMP280;57917;51.380;-0.176;2023-12-07T03:22:29;100996.47;;;7.19
29701;BMP280;57917;51.380;-0.176;2023-12-07T03:28:16;101003.97;;;7.10
29701;BMP280;57917;51.380;-0.176;2023-12-07T03:34:03;101011.63;;;7.12
29701;BMP280;57917;51.380;-0.176;2023-12-07T03:39:52;100997.09;;;7.09
29701;BMP280;57917;51.380;-0.176;2023-12-07T03:45:39;101002.34;;;7.09
29701;BMP280;57917;51.380;-0.176;2023-12-07T03:51:26;101023.09;;;7.22
29701;BMP280;57917;51.380;-0.176;2023-12-07T03:57:14;101024.13;;;7.21
29701;BMP280;57917;51.380;-0.176;2023-12-07T04:03:04;100996.47;;;7.19
29701;BMP280;57917;51.380;-0.176;2023-12-07T04:08:51;100997.34;;;7.24
29701;BMP280;57917;51.380;-0.176;2023-12-07T04:14:37;100976.78;;;7.26
29701;BMP280;57917;51.380;-0.176;2023-12-07T04:20:24;100964.19;;;7.28
29701;BMP280;57917;51.380;-0.176;2023-12-07T04:26:11;100961.81;;;7.27
29701;BMP280;57917;51.380;-0.176;2023-12-07T04:31:58;100956.72;;;7.20
29701;BMP280;57917;51.380;-0.176;2023-12-07T04:37:45;100951.50;;;7.25
29701;BMP280;57917;51.380;-0.176;2023-12-07T04:43:32;100935.47;;;7.27
29701;BMP280;57917;51.380;-0.176;2023-12-07T04:49:20;100940.50;;;7.28
29701;BMP280;57917;51.380;-0.176;2023-12-07T04:55:07;100927.97;;;7.35
29701;BMP280;57917;51.380;-0.176;2023-12-07T05:00:54;100921.03;;;7.29
29701;BMP280;57917;51.380;-0.176;2023-12-07T05:06:42;100912.16;;;7.35
29701;BMP280;57917;51.380;-0.176;2023-12-07T05:12:28;100905.78;;;7.31
29701;BMP280;57917;51.380;-0.176;2023-12-07T05:18:15;100907.38;;;7.32
29701;BMP280;57917;51.380;-0.176;2023-12-07T05:24:02;100908.53;;;7.41
29701;BMP280;57917;51.380;-0.176;2023-12-07T05:29:49;100908.91;;;7.50
29701;BMP280;57917;51.380;-0.176;2023-12-07T05:35:36;100904.75;;;7.32
29701;BMP280;57917;51.380;-0.176;2023-12-07T05:41:23;100908.59;;;7.46
29701;BMP280;57917;51.380;-0.176;2023-12-07T05:47:10;100897.28;;;7.46
29701;BMP280;57917;51.380;-0.176;2023-12-07T05:52:57;100882.94;;;7.37
29701;BMP280;57917;51.380;-0.176;2023-12-07T05:58:44;100882.22;;;7.41
29701;BMP280;57917;51.380;-0.176;2023-12-07T06:04:30;100863.22;;;7.39
29701;BMP280;57917;51.380;-0.176;2023-12-07T06:10:17;100838.91;;;7.32
29701;BMP280;57917;51.380;-0.176;2023-12-07T06:16:04;100835.28;;;7.38
29701;BMP280;57917;51.380;-0.176;2023-12-07T06:21:54;100835.66;;;7.47
29701;BMP280;57917;51.380;-0.176;2023-12-07T06:27:41;100863.28;;;7.44
29701;BMP280;57917;51.380;-0.176;2023-12-07T06:33:28;100873.84;;;7.49
29701;BMP280;57917;51.380;-0.176;2023-12-07T06:39:17;100863.72;;;7.58
29701;BMP280;57917;51.380;-0.176;2023-12-07T06:45:33;100860.75;;;7.54
29701;BMP280;57917;51.380;-0.176;2023-12-07T06:51:20;100842.00;;;7.51
29701;BMP280;57917;51.380;-0.176;2023-12-07T06:57:07;100814.84;;;7.50
29701;BMP280;57917;51.380;-0.176;2023-12-07T07:02:54;100827.66;;;7.42
29701;BMP280;57917;51.380;-0.176;2023-12-07T07:08:41;100828.84;;;7.51
29701;BMP280;57917;51.380;-0.176;2023-12-07T07:14:29;100815.28;;;7.64
29701;BMP280;57917;51.380;-0.176;2023-12-07T07:20:16;100809.03;;;7.43
29701;BMP280;57917;51.380;-0.176;2023-12-07T07:26:04;100804.50;;;7.66
29701;BMP280;57917;51.380;-0.176;2023-12-07T07:31:51;100791.31;;;7.66
29701;BMP280;57917;51.380;-0.176;2023-12-07T07:37:40;100802.66;;;7.71
29701;BMP280;57917;51.380;-0.176;2023-12-07T07:43:29;100782.47;;;7.77
29701;BMP280;57917;51.380;-0.176;2023-12-07T07:49:16;100776.59;;;7.70
29701;BMP280;57917;51.380;-0.176;2023-12-07T07:55:05;100768.03;;;7.84
29701;BMP280;57917;51.380;-0.176;2023-12-07T08:00:52;100762.41;;;7.76
29701;BMP280;57917;51.380;-0.176;2023-12-07T08:06:42;100744.56;;;7.83
29701;BMP280;57917;51.380;-0.176;2023-12-07T08:12:33;100731.75;;;7.96
29701;BMP280;57917;51.380;-0.176;2023-12-07T08:18:22;100727.25;;;7.92
29701;BMP280;57917;51.380;-0.176;2023-12-07T08:24:13;100716.94;;;7.90
29701;BMP280;57917;51.380;-0.176;2023-12-07T08:30:01;100718.72;;;7.80
29701;BMP280;57917;51.380;-0.176;2023-12-07T08:35:49;100694.22;;;7.84
29701;BMP280;57917;51.380;-0.176;2023-12-07T08:41:42;100702.69;;;7.86
29701;BMP280;57917;51.380;-0.176;2023-12-07T08:47:29;100680.34;;;7.94
29701;BMP280;57917;51.380;-0.176;2023-12-07T08:53:18;100676.66;;;7.90
29701;BMP280;57917;51.380;-0.176;2023-12-07T08:59:11;100660.34;;;7.98
29701;BMP280;57917;51.380;-0.176;2023-12-07T09:05:04;100654.25;;;7.97
29701;BMP280;57917;51.380;-0.176;2023-12-07T09:10:55;100626.63;;;8.05
29701;BMP280;57917;51.380;-0.176;2023-12-07T09:16:45;100606.06;;;8.07
29701;BMP280;57917;51.380;-0.176;2023-12-07T09:22:35;100605.53;;;8.05
29701;BMP280;57917;51.380;-0.176;2023-12-07T09:28:24;100590.78;;;8.09
29701;BMP280;57917;51.380;-0.176;2023-12-07T09:34:12;100586.31;;;8.09
29701;BMP280;57917;51.380;-0.176;2023-12-07T09:40:07;100587.41;;;8.18
29701;BMP280;57917;51.380;-0.176;2023-12-07T09:45:57;100567.16;;;8.34
29701;BMP280;57917;51.380;-0.176;2023-12-07T09:51:46;100557.09;;;8.26
29701;BMP280;57917;51.380;-0.176;2023-12-07T09:57:33;100549.22;;;8.31
29701;BMP280;57917;51.380;-0.176;2023-12-07T10:03:22;100570.31;;;8.31
29701;BMP280;57917;51.380;-0.176;2023-12-07T10:09:10;100566.69;;;8.52
29701;BMP280;57917;51.380;-0.176;2023-12-07T10:15:13;100576.19;;;8.53
29701;BMP280;57917;51.380;-0.176;2023-12-07T10:21:01;100565.09;;;8.51
29701;BMP280;57917;51.380;-0.176;2023-12-07T10:26:50;100554.00;;;8.59
29701;BMP280;57917;51.380;-0.176;2023-12-07T10:32:50;100525.53;;;8.61
29701;BMP280;57917;51.380;-0.176;2023-12-07T10:38:37;100500.19;;;8.65
29701;BMP280;57917;51.380;-0.176;2023-12-07T10:44:26;100487.00;;;8.75
29701;BMP280;57917;51.380;-0.176;2023-12-07T10:50:23;100478.56;;;8.68
29701;BMP280;57917;51.380;-0.176;2023-12-07T10:56:35;100468.28;;;8.71
29701;BMP280;57917;51.380;-0.176;2023-12-07T11:02:29;100468.78;;;8.89
29701;BMP280;57917;51.380;-0.176;2023-12-07T11:08:33;100460.59;;;8.90
29701;BMP280;57917;51.380;-0.176;2023-12-07T11:14:23;100444.19;;;9.03
29701;BMP280;57917;51.380;-0.176;2023-12-07T11:20:40;100447.91;;;8.97
29701;BMP280;57917;51.380;-0.176;2023-12-07T11:26:25;100426.78;;;9.07
29701;BMP280;57917;51.380;-0.176;2023-12-07T11:32:13;100419.69;;;8.93
29701;BMP280;57917;51.380;-0.176;2023-12-07T11:38:11;100423.34;;;8.97
29701;BMP280;57917;51.380;-0.176;2023-12-07T11:44:51;100407.81;;;8.90
29701;BMP280;57917;51.380;-0.176;2023-12-07T11:50:56;100381.91;;;8.97
29701;BMP280;57917;51.380;-0.176;2023-12-07T11:56:45;100376.69;;;8.87
29701;BMP280;57917;51.380;-0.176;2023-12-07T12:02:32;100349.47;;;8.87
29701;BMP280;57917;51.380;-0.176;2023-12-07T12:08:26;100320.19;;;8.88
29701;BMP280;57917;51.380;-0.176;2023-12-07T12:14:15;100320.75;;;8.80
29701;BMP280;57917;51.380;-0.176;2023-12-07T12:20:09;100315.22;;;8.77
29701;BMP280;57917;51.380;-0.176;2023-12-07T12:26:20;100303.59;;;8.77
29701;BMP280;57917;51.380;-0.176;2023-12-07T12:32:08;100294.88;;;8.82
29701;BMP280;57917;51.380;-0.176;2023-12-07T12:37:56;100294.38;;;8.75
29701;BMP280;57917;51.380;-0.176;2023-12-07T12:43:46;100271.63;;;8.84
29701;BMP280;57917;51.380;-0.176;2023-12-07T12:49:37;100257.63;;;8.84
29701;BMP280;57917;51.380;-0.176;2023-12-07T12:55:35;100240.53;;;8.71
29701;BMP280;57917;51.380;-0.176;2023-12-07T13:01:24;100212.59;;;8.70
29701;BMP280;57917;51.380;-0.176;2023-12-07T13:07:12;100200.72;;;8.73
29701;BMP280;57917;51.380;-0.176;2023-12-07T13:13:02;100189.38;;;8.72
29701;BMP280;57917;51.380;-0.176;2023-12-07T13:18:50;100188.38;;;8.58
29701;BMP280;57917;51.380;-0.176;2023-12-07T13:24:37;100163.00;;;8.72
29701;BMP280;57917;51.380;-0.176;2023-12-07T13:30:24;100167.56;;;8.51
29701;BMP280;57917;51.380;-0.176;2023-12-07T13:36:16;100147.28;;;8.42
29701;BMP280;57917;51.380;-0.176;2023-12-07T13:42:10;100136.75;;;8.42
29701;BMP280;57917;51.380;-0.176;2023-12-07T13:47:57;100131.47;;;8.42
29701;BMP280;57917;51.380;-0.176;2023-12-07T13:53:45;100112.50;;;8.35
29701;BMP280;57917;51.380;-0.176;2023-12-07T13:59:33;100083.22;;;8.36
29701;BMP280;57917;51.380;-0.176;2023-12-07T14:05:20;100083.97;;;8.47
29701;BMP280;57917;51.380;-0.176;2023-12-07T14:11:08;100068.56;;;8.15
29701;BMP280;57917;51.380;-0.176;2023-12-07T14:16:58;100049.94;;;7.97
29701;BMP280;57917;51.380;-0.176;2023-12-07T14:22:57;100048.38;;;7.86
29701;BMP280;57917;51.380;-0.176;2023-12-07T14:28:51;100055.28;;;7.77
29701;BMP280;57917;51.380;-0.176;2023-12-07T14:34:38;100051.84;;;7.71
29701;BMP280;57917;51.380;-0.176;2023-12-07T14:40:25;100065.59;;;7.53
29701;BMP280;57917;51.380;-0.176;2023-12-07T14:46:12;100037.44;;;7.59
29701;BMP280;57917;51.380;-0.176;2023-12-07T14:51:59;100035.31;;;7.61
29701;BMP280;57917;51.380;-0.176;2023-12-07T14:57:48;100043.53;;;7.44
29701;BMP280;57917;51.380;-0.176;2023-12-07T15:03:38;100042.19;;;7.51
29701;BMP280;57917;51.380;-0.176;2023-12-07T15:09:26;100028.00;;;7.32
29701;BMP280;57917;51.380;-0.176;2023-12-07T15:15:15;100016.66;;;7.32
29701;BMP280;57917;51.380;-0.176;2023-12-07T15:21:02;100004.28;;;7.27
29701;BMP280;57917;51.380;-0.176;2023-12-07T15:26:54;100004.84;;;7.14
29701;BMP280;57917;51.380;-0.176;2023-12-07T15:32:41;99984.59;;;7.10
29701;BMP280;57917;51.380;-0.176;2023-12-07T15:38:30;99979.31;;;7.05
29701;BMP280;57917;51.380;-0.176;2023-12-07T15:44:17;99957.50;;;7.04
29701;BMP280;57917;51.380;-0.176;2023-12-07T15:50:15;99943.06;;;7.02
29701;BMP280;57917;51.380;-0.176;2023-12-07T15:56:03;99931.22;;;6.99
29701;BMP280;57917;51.380;-0.176;2023-12-07T16:02:29;99920.16;;;6.97
29701;BMP280;57917;51.380;-0.176;2023-12-07T16:08:50;99915.66;;;7.03
29701;BMP280;57917;51.380;-0.176;2023-12-07T16:14:52;99897.81;;;7.00
29701;BMP280;57917;51.380;-0.176;2023-12-07T16:20:43;99889.38;;;6.98
29701;BMP280;57917;51.380;-0.176;2023-12-07T16:26:45;99891.72;;;7.04
29701;BMP280;57917;51.380;-0.176;2023-12-07T16:32:34;99876.75;;;6.95
29701;BMP280;57917;51.380;-0.176;2023-12-07T16:38:22;99877.53;;;6.95
29701;BMP280;57917;51.380;-0.176;2023-12-07T16:44:27;99879.91;;;7.02
29701;BMP280;57917;51.380;-0.176;2023-12-07T16:50:36;99868.06;;;7.04
29701;BMP280;57917;51.380;-0.176;2023-12-07T16:56:36;99874.34;;;7.03
29701;BMP280;57917;51.380;-0.176;2023-12-07T17:02:34;99845.94;;;7.10
29701;BMP280;57917;51.380;-0.176;2023-12-07T17:08:22;99855.94;;;7.03
29701;BMP280;57917;51.380;-0.176;2023-12-07T17:14:09;99835.69;;;6.99
29701;BMP280;57917;51.380;-0.176;2023-12-07T17:19:56;99807.22;;;7.16
29701;BMP280;57917;51.380;-0.176;2023-12-07T17:26:00;99790.69;;;7.05
29701;BMP280;57917;51.380;-0.176;2023-12-07T17:40:01;99802.72;;;7.21
29701;BMP280;57917;51.380;-0.176;2023-12-07T17:45:53;99800.91;;;7.17
29701;BMP280;57917;51.380;-0.176;2023-12-07T17:51:42;99808.00;;;7.16
29701;BMP280;57917;51.380;-0.176;2023-12-07T17:57:30;99799.56;;;7.24
29701;BMP280;57917;51.380;-0.176;2023-12-07T18:03:18;99789.00;;;7.29
29701;BMP280;57917;51.380;-0.176;2023-12-07T18:09:08;99789.72;;;7.40
29701;BMP280;57917;51.380;-0.176;2023-12-07T18:14:55;99792.34;;;7.40
29701;BMP280;57917;51.380;-0.176;2023-12-07T18:21:18;99791.53;;;7.44
29701;BMP280;57917;51.380;-0.176;2023-12-07T18:27:39;99787.06;;;7.45
29701;BMP280;57917;51.380;-0.176;2023-12-07T18:33:36;99776.16;;;7.62
29701;BMP280;57917;51.380;-0.176;2023-12-07T18:40:06;99778.06;;;7.56
29701;BMP280;57917;51.380;-0.176;2023-12-07T18:46:27;99781.47;;;7.56
29701;BMP280;57917;51.380;-0.176;2023-12-07T18:52:22;99802.94;;;7.74
29701;BMP280;57917;51.380;-0.176;2023-12-07T19:04:42;99791.28;;;7.85
29701;BMP280;57917;51.380;-0.176;2023-12-07T19:10:52;99790.91;;;7.96
29701;BMP280;57917;51.380;-0.176;2023-12-07T19:16:47;99795.19;;;7.92
29701;BMP280;57917;51.380;-0.176;2023-12-07T19:22:37;99776.16;;;7.95
29701;BMP280;57917;51.380;-0.176;2023-12-07T19:28:30;99761.56;;;8.08
29701;BMP280;57917;51.380;-0.176;2023-12-07T19:34:52;99736.25;;;8.07
29701;BMP280;57917;51.380;-0.176;2023-12-07T19:41:06;99717.91;;;8.02
29701;BMP280;57917;51.380;-0.176;2023-12-07T19:46:53;99729.88;;;7.84
29701;BMP280;57917;51.380;-0.176;2023-12-07T19:52:48;99718.47;;;7.94
29701;BMP280;57917;51.380;-0.176;2023-12-07T19:58:38;99708.38;;;7.77
29701;BMP280;57917;51.380;-0.176;2023-12-07T20:04:28;99717.78;;;7.83
29701;BMP280;57917;51.380;-0.176;2023-12-07T20:10:15;99713.78;;;7.86
29701;BMP280;57917;51.380;-0.176;2023-12-07T20:16:19;99720.66;;;7.82
29701;BMP280;57917;51.380;-0.176;2023-12-07T20:22:13;99708.59;;;7.81
29701;BMP280;57917;51.380;-0.176;2023-12-07T20:28:02;99698.78;;;7.86
29701;BMP280;57917;51.380;-0.176;2023-12-07T20:33:50;99687.63;;;7.94
29701;BMP280;57917;51.380;-0.176;2023-12-07T20:39:41;99688.84;;;8.07
29701;BMP280;57917;51.380;-0.176;2023-12-07T20:45:29;99693.59;;;8.05
29701;BMP280;57917;51.380;-0.176;2023-12-07T20:51:17;99690.94;;;8.05
29701;BMP280;57917;51.380;-0.176;2023-12-07T20:57:04;99696.19;;;8.10
29701;BMP280;57917;51.380;-0.176;2023-12-07T21:02:54;99701.31;;;8.25
29701;BMP280;57917;51.380;-0.176;2023-12-07T21:08:49;99701.25;;;8.30
29701;BMP280;57917;51.380;-0.176;2023-12-07T21:14:36;99714.81;;;8.42
29701;BMP280;57917;51.380;-0.176;2023-12-07T21:20:25;99694.53;;;8.42
29701;BMP280;57917;51.380;-0.176;2023-12-07T21:26:12;99686.41;;;8.57
29701;BMP280;57917;51.380;-0.176;2023-12-07T21:32:02;99665.13;;;8.54
29701;BMP280;57917;51.380;-0.176;2023-12-07T21:37:55;99688.13;;;8.67
29701;BMP280;57917;51.380;-0.176;2023-12-07T21:43:45;99665.97;;;8.68
29701;BMP280;57917;51.380;-0.176;2023-12-07T21:49:39;99677.19;;;8.79
29701;BMP280;57917;51.380;-0.176;2023-12-07T21:55:38;99682.88;;;8.86
29701;BMP280;57917;51.380;-0.176;2023-12-07T22:01:40;99661.84;;;8.99
29701;BMP280;57917;51.380;-0.176;2023-12-07T22:08:47;99692.38;;;9.05
29701;BMP280;57917;51.380;-0.176;2023-12-07T22:14:36;99679.16;;;9.05
29701;BMP280;57917;51.380;-0.176;2023-12-07T22:20:31;99687.34;;;9.22
29701;BMP280;57917;51.380;-0.176;2023-12-07T22:26:18;99702.22;;;9.18
29701;BMP280;57917;51.380;-0.176;2023-12-07T22:32:05;99704.22;;;9.26
29701;BMP280;57917;51.380;-0.176;2023-12-07T22:37:57;99702.50;;;9.35
29701;BMP280;57917;51.380;-0.176;2023-12-07T22:43:44;99709.69;;;9.30
29701;BMP280;57917;51.380;-0.176;2023-12-07T22:49:44;99718.84;;;9.37
29701;BMP280;57917;51.380;-0.176;2023-12-07T22:55:35;99733.41;;;9.48
29701;BMP280;57917;51.380;-0.176;2023-12-07T23:01:25;99749.38;;;9.75
29701;BMP280;57917;51.380;-0.176;2023-12-07T23:07:14;99754.41;;;9.90
29701;BMP280;57917;51.380;-0.176;2023-12-07T23:13:04;99760.38;;;9.82
29701;BMP280;57917;51.380;-0.176;2023-12-07T23:18:53;99752.06;;;10.02
29701;BMP280;57917;51.380;-0.176;2023-12-07T23:24:41;99761.91;;;10.16
29701;BMP280;57917;51.380;-0.176;2023-12-07T23:30:31;99780.00;;;10.09
29701;BMP280;57917;51.380;-0.176;2023-12-07T23:36:17;99785.19;;;10.00
29701;BMP280;57917;51.380;-0.176;2023-12-07T23:42:07;99797.94;;;10.12
29701;BMP280;57917;51.380;-0.176;2023-12-07T23:47:54;99790.59;;;10.22
29701;BMP280;57917;51.380;-0.176;2023-12-07T23:53:41;99785.50;;;10.26
29701;BMP280;57917;51.380;-0.176;2023-12-07T23:59:33;99792.06;;;10.15
